Time;durP1;ratioP1;P1;durP2;ratioP2;P2;SDS_P1;SDS_P2;PMS_P1;PMS_P2;Temp;Humidity;BMP_temperature;BMP_pressure;BME280_temperature;BME280_humidity;BME280_pressure;Samples;Min_cycle;Max_cycle;Signal;HPM_P1;HPM_P2
2022/05/04 00:02:25;;;;;;;6.53;4.88;;;;;;;;;;4997846;28;20084;-73
2022/05/04 00:04:51;;;;;;;5.63;4.25;;;;;;;;;;5003128;28;20441;-74
2022/05/04 00:07:17;;;;;;;5.43;4.43;;;;;;;;;;4996454;28;20038;-74
2022/05/04 00:09:43;;;;;;;6.30;4.72;;;;;;;;;;5004652;28;20041;-72
2022/05/04 00:12:10;;;;;;;5.32;4.05;;;;;;;;;;5003499;28;20052;-73
2022/05/04 00:14:36;;;;;;;5.22;4.18;;;;;;;;;;5000976;28;20155;-73
2022/05/04 00:17:02;;;;;;;6.32;3.70;;;;;;;;;;5000202;28;20018;-73
2022/05/04 00:19:28;;;;;;;5.68;3.53;;;;;;;;;;5005040;28;20506;-74
2022/05/04 00:21:54;;;;;;;5.07;3.95;;;;;;;;;;5006674;28;20057;-73
2022/05/04 00:24:20;;;;;;;4.05;3.65;;;;;;;;;;5000906;28;20041;-73
2022/05/04 00:26:46;;;;;;;4.90;3.65;;;;;;;;;;4998061;28;20475;-73
2022/05/04 00:29:13;;;;;;;4.15;3.70;;;;;;;;;;5007396;28;20054;-74
2022/05/04 00:31:39;;;;;;;5.97;3.78;;;;;;;;;;5001481;28;20112;-74
2022/05/04 00:34:05;;;;;;;5.00;3.90;;;;;;;;;;4999897;28;20026;-74
2022/05/04 00:36:34;;;;;;;4.45;3.80;;;;;;;;;;5001415;28;20409;-74
2022/05/04 00:39:00;;;;;;;4.68;3.90;;;;;;;;;;4997166;28;20094;-74
2022/05/04 00:41:26;;;;;;;5.10;4.20;;;;;;;;;;5003985;28;20434;-75
2022/05/04 00:43:53;;;;;;;5.47;4.00;;;;;;;;;;5000038;28;20026;-75
2022/05/04 00:46:20;;;;;;;4.70;4.13;;;;;;;;;;5002559;28;20038;-75
2022/05/04 00:48:46;;;;;;;7.00;3.97;;;;;;;;;;4996470;28;20492;-74
2022/05/04 00:51:12;;;;;;;5.13;3.95;;;;;;;;;;4996435;28;20030;-74
2022/05/04 00:53:38;;;;;;;5.13;4.07;;;;;;;;;;5000943;28;20651;-73
2022/05/04 00:56:05;;;;;;;6.38;4.35;;;;;;;;;;5002351;28;20030;-74
2022/05/04 01:01:17;;;;;;;8.18;4.45;;;;;;;;;;5006604;28;20399;-74
2022/05/04 01:03:43;;;;;;;9.15;5.65;;;;;;;;;;5003953;28;20030;-74
2022/05/04 01:06:09;;;;;;;7.07;5.60;;;;;;;;;;5001073;28;20023;-74
2022/05/04 01:08:35;;;;;;;7.60;4.97;;;;;;;;;;5002919;28;20073;-74
2022/05/04 01:11:02;;;;;;;10.45;6.38;;;;;;;;;;4998883;28;20449;-73
2022/05/04 01:13:28;;;;;;;6.45;5.68;;;;;;;;;;5004528;28;20109;-72
2022/05/04 01:15:54;;;;;;;7.43;5.75;;;;;;;;;;4995396;28;20100;-73
2022/05/04 01:18:20;;;;;;;7.70;4.90;;;;;;;;;;5001828;28;20146;-73
2022/05/04 01:20:46;;;;;;;9.07;4.82;;;;;;;;;;4995908;28;20404;-74
2022/05/04 01:23:13;;;;;;;7.78;4.90;;;;;;;;;;4991725;28;20038;-73
2022/05/04 01:25:39;;;;;;;6.40;4.72;;;;;;;;;;4996217;28;20036;-74
2022/05/04 01:28:06;;;;;;;8.18;4.72;;;;;;;;;;5002871;28;20109;-73
2022/05/04 01:30:32;;;;;;;5.45;4.18;;;;;;;;;;5004965;28;20373;-73
2022/05/04 01:33:01;;;;;;;6.63;4.13;;;;;;;;;;5003730;28;20140;-73
2022/05/04 01:35:28;;;;;;;5.57;3.92;;;;;;;;;;5001102;28;20065;-73
2022/05/04 01:37:54;;;;;;;6.20;4.30;;;;;;;;;;5001495;28;20033;-74
2022/05/04 01:40:20;;;;;;;6.28;3.97;;;;;;;;;;5001371;28;20030;-74
2022/05/04 01:42:46;;;;;;;4.55;3.58;;;;;;;;;;5000350;28;20034;-74
2022/05/04 01:45:12;;;;;;;4.47;3.63;;;;;;;;;;4999248;28;20038;-74
2022/05/04 01:47:38;;;;;;;5.07;3.75;;;;;;;;;;4993943;28;20045;-73
2022/05/04 01:50:05;;;;;;;5.28;3.67;;;;;;;;;;4995601;28;20037;-74
2022/05/04 01:52:31;;;;;;;5.43;3.42;;;;;;;;;;4997834;28;20026;-74
2022/05/04 01:55:00;;;;;;;4.80;3.63;;;;;;;;;;5005707;28;20368;-73
2022/05/04 01:57:27;;;;;;;3.72;3.05;;;;;;;;;;4993659;28;20034;-73
2022/05/04 01:59:54;;;;;;;5.28;3.70;;;;;;;;;;4998210;28;20064;-73
2022/05/04 02:02:20;;;;;;;4.18;3.03;;;;;;;;;;5003644;28;20129;-73
2022/05/04 02:04:50;;;;;;;3.30;3.00;;;;;;;;;;5009015;28;20025;-74
2022/05/04 02:07:16;;;;;;;3.03;2.70;;;;;;;;;;5003534;28;20057;-74
2022/05/04 02:09:42;;;;;;;7.28;3.38;;;;;;;;;;5005648;28;20129;-74
2022/05/04 02:12:09;;;;;;;3.90;3.22;;;;;;;;;;5001044;28;20476;-73
2022/05/04 02:14:35;;;;;;;5.13;3.50;;;;;;;;;;5005020;28;20057;-74
2022/05/04 02:17:01;;;;;;;4.38;3.28;;;;;;;;;;5006709;28;20388;-74
2022/05/04 02:19:27;;;;;;;3.40;2.80;;;;;;;;;;4996808;28;20026;-72
2022/05/04 02:21:53;;;;;;;4.10;3.00;;;;;;;;;;5001893;28;20838;-73
2022/05/04 02:24:29;;;;;;;3.03;2.72;;;;;;;;;;5000296;28;20030;-73
2022/05/04 02:26:55;;;;;;;3.53;3.03;;;;;;;;;;5003990;28;20037;-72
2022/05/04 02:29:21;;;;;;;3.13;2.70;;;;;;;;;;4999836;28;20034;-74
2022/05/04 02:31:47;;;;;;;4.53;2.92;;;;;;;;;;4995845;28;20030;-73
2022/05/04 02:34:13;;;;;;;4.63;2.60;;;;;;;;;;4997347;28;20034;-73
2022/05/04 02:39:24;;;;;;;4.38;2.75;;;;;;;;;;4999440;28;20519;-74
2022/05/04 02:41:52;;;;;;;4.18;2.70;;;;;;;;;;4999581;28;20018;-73
2022/05/04 02:44:18;;;;;;;4.40;2.78;;;;;;;;;;4994510;28;20029;-73
2022/05/04 02:46:44;;;;;;;7.13;3.10;;;;;;;;;;4997495;28;20034;-73
2022/05/04 02:49:10;;;;;;;2.50;2.30;;;;;;;;;;4996933;28;20042;-73
2022/05/04 02:51:36;;;;;;;3.53;2.40;;;;;;;;;;4997028;28;20100;-73
2022/05/04 02:54:03;;;;;;;3.17;2.58;;;;;;;;;;4989489;28;20026;-73
2022/05/04 02:56:29;;;;;;;2.92;2.53;;;;;;;;;;5000838;28;20038;-74
2022/05/04 02:58:55;;;;;;;4.43;2.53;;;;;;;;;;5007096;28;20101;-75
2022/05/04 03:04:06;;;;;;;4.38;3.22;;;;;;;;;;5000125;28;20475;-74
2022/05/04 03:06:36;;;;;;;4.13;2.63;;;;;;;;;;5003521;28;20034;-73
2022/05/04 03:09:03;;;;;;;4.00;2.63;;;;;;;;;;5002261;28;20053;-74
2022/05/04 03:14:14;;;;;;;4.28;2.60;;;;;;;;;;5003257;28;20105;-73
2022/05/04 03:16:40;;;;;;;2.67;2.35;;;;;;;;;;5003692;28;20435;-73
2022/05/04 03:19:06;;;;;;;3.28;2.85;;;;;;;;;;5002714;28;20022;-73
2022/05/04 03:21:33;;;;;;;3.40;2.63;;;;;;;;;;5003296;28;20041;-73
2022/05/04 03:23:59;;;;;;;3.85;2.88;;;;;;;;;;4996992;28;20116;-75
2022/05/04 03:26:25;;;;;;;4.05;2.90;;;;;;;;;;5000933;28;20034;-74
2022/05/04 03:28:52;;;;;;;3.28;2.60;;;;;;;;;;4999508;28;20178;-74
2022/05/04 03:31:18;;;;;;;2.80;2.50;;;;;;;;;;5000662;28;20026;-74
2022/05/04 03:33:44;;;;;;;3.30;2.60;;;;;;;;;;4998247;28;20152;-74
2022/05/04 03:36:13;;;;;;;3.08;2.70;;;;;;;;;;5003938;28;20022;-73
2022/05/04 03:38:40;;;;;;;3.45;2.70;;;;;;;;;;4998464;28;20033;-74
2022/05/04 03:41:06;;;;;;;2.70;2.42;;;;;;;;;;5001257;28;20484;-74
2022/05/04 03:43:33;;;;;;;3.17;2.40;;;;;;;;;;4997912;28;20352;-74
2022/05/04 03:46:18;;;;;;;2.55;2.15;;;;;;;;;;4992504;28;20118;-73
2022/05/04 03:48:44;;;;;;;3.72;2.20;;;;;;;;;;4998360;28;20106;-74
2022/05/04 03:51:11;;;;;;;3.75;2.50;;;;;;;;;;4999811;28;20030;-73
2022/05/04 03:53:37;;;;;;;4.97;2.22;;;;;;;;;;5004697;28;20053;-72
2022/05/04 03:56:04;;;;;;;2.40;1.88;;;;;;;;;;4997220;28;20050;-73
2022/05/04 03:58:30;;;;;;;5.30;2.20;;;;;;;;;;4995887;28;20037;-74
2022/05/04 04:00:59;;;;;;;3.40;2.45;;;;;;;;;;5004770;28;20116;-73
2022/05/04 04:03:25;;;;;;;2.63;2.03;;;;;;;;;;5000063;28;20130;-73
2022/05/04 04:05:51;;;;;;;2.17;1.98;;;;;;;;;;4999766;28;20026;-74
2022/05/04 04:08:17;;;;;;;2.72;2.15;;;;;;;;;;5003441;28;20023;-74
2022/05/04 04:10:43;;;;;;;3.80;2.10;;;;;;;;;;5009774;28;20026;-74
2022/05/04 04:13:09;;;;;;;3.65;2.03;;;;;;;;;;5001237;28;20502;-75
2022/05/04 04:15:36;;;;;;;2.25;1.90;;;;;;;;;;5005712;28;20050;-75
2022/05/04 04:18:02;;;;;;;3.05;2.38;;;;;;;;;;5004542;28;20030;-74
2022/05/04 04:23:14;;;;;;;2.75;2.50;;;;;;;;;;5000627;28;20041;-74
2022/05/04 04:25:40;;;;;;;3.33;2.03;;;;;;;;;;5003086;28;20191;-73
2022/05/04 04:28:06;;;;;;;2.60;2.00;;;;;;;;;;5006278;28;20026;-73
2022/05/04 04:30:32;;;;;;;3.13;2.10;;;;;;;;;;5005139;28;20067;-76
2022/05/04 04:32:58;;;;;;;3.30;2.30;;;;;;;;;;5004846;28;20400;-75
2022/05/04 04:35:24;;;;;;;1.90;1.70;;;;;;;;;;5003470;28;20060;-74
2022/05/04 04:37:52;;;;;;;3.65;2.13;;;;;;;;;;5003141;28;20057;-74
2022/05/04 04:40:18;;;;;;;3.00;2.55;;;;;;;;;;5000716;28;20049;-75
2022/05/04 04:42:44;;;;;;;2.50;2.17;;;;;;;;;;4997715;28;20045;-74
2022/05/04 04:45:11;;;;;;;2.60;2.10;;;;;;;;;;5002603;28;20399;-74
2022/05/04 04:47:37;;;;;;;2.90;2.20;;;;;;;;;;4999011;28;20448;-73
2022/05/04 04:50:04;;;;;;;2.28;2.08;;;;;;;;;;5005000;28;20499;-74
2022/05/04 04:52:30;;;;;;;3.25;2.10;;;;;;;;;;5002383;28;20048;-74
2022/05/04 04:54:56;;;;;;;2.08;1.88;;;;;;;;;;5002916;28;20052;-74
2022/05/04 04:57:25;;;;;;;3.83;2.17;;;;;;;;;;4999834;28;20033;-73
2022/05/04 04:59:51;;;;;;;4.68;2.10;;;;;;;;;;5013180;28;20129;-74
2022/05/04 05:02:17;;;;;;;2.22;2.00;;;;;;;;;;4996087;28;20041;-74
2022/05/04 05:04:44;;;;;;;3.17;2.20;;;;;;;;;;5002160;28;20358;-74
2022/05/04 05:07:10;;;;;;;2.25;2.03;;;;;;;;;;5000021;28;20124;-74
2022/05/04 05:09:36;;;;;;;2.30;1.92;;;;;;;;;;5000531;28;20061;-73
2022/05/04 05:12:02;;;;;;;2.55;2.20;;;;;;;;;;5004350;28;20041;-74
2022/05/04 05:17:13;;;;;;;2.53;1.75;;;;;;;;;;5003440;28;20073;-74
2022/05/04 05:19:39;;;;;;;2.97;2.10;;;;;;;;;;5004472;28;20029;-73
2022/05/04 05:22:05;;;;;;;1.80;1.67;;;;;;;;;;5002509;28;20157;-73
2022/05/04 05:24:31;;;;;;;2.97;2.10;;;;;;;;;;5001013;28;20164;-74
2022/05/04 05:26:57;;;;;;;2.70;1.80;;;;;;;;;;5002864;28;20080;-74
2022/05/04 05:29:23;;;;;;;4.18;1.90;;;;;;;;;;5002987;28;20018;-74
2022/05/04 05:31:49;;;;;;;2.35;1.75;;;;;;;;;;5017731;28;20030;-73
2022/05/04 05:34:15;;;;;;;2.22;1.90;;;;;;;;;;5002413;28;20022;-75
2022/05/04 05:36:41;;;;;;;2.30;2.05;;;;;;;;;;5011090;28;20022;-74
2022/05/04 05:39:07;;;;;;;2.88;1.80;;;;;;;;;;4999671;28;20026;-75
2022/05/04 05:41:33;;;;;;;2.20;1.77;;;;;;;;;;4998954;28;20030;-75
2022/05/04 05:44:00;;;;;;;2.65;1.67;;;;;;;;;;4998925;28;20369;-75
2022/05/04 05:46:28;;;;;;;3.30;1.60;;;;;;;;;;5003308;28;20028;-74
2022/05/04 05:48:54;;;;;;;3.15;2.17;;;;;;;;;;5012039;28;20029;-73
2022/05/04 05:51:20;;;;;;;2.35;1.67;;;;;;;;;;4994798;28;20026;-73
2022/05/04 05:53:46;;;;;;;2.50;1.90;;;;;;;;;;5004756;28;20040;-75
2022/05/04 05:56:12;;;;;;;3.33;1.98;;;;;;;;;;4998703;28;20018;-75
2022/05/04 05:58:39;;;;;;;3.85;1.80;;;;;;;;;;4994693;28;20121;-74
2022/05/04 06:01:05;;;;;;;3.35;2.10;;;;;;;;;;5007215;28;20030;-75
2022/05/04 06:03:31;;;;;;;2.03;1.77;;;;;;;;;;5012397;28;20090;-73
2022/05/04 06:05:57;;;;;;;2.10;1.73;;;;;;;;;;4999466;28;20030;-74
2022/05/04 06:08:23;;;;;;;3.75;2.33;;;;;;;;;;4996736;28;20038;-73
2022/05/04 06:10:49;;;;;;;2.83;2.20;;;;;;;;;;5004734;28;20090;-73
2022/05/04 06:13:16;;;;;;;2.42;2.05;;;;;;;;;;5006710;28;20026;-74
2022/05/04 06:15:42;;;;;;;2.53;1.88;;;;;;;;;;5000207;28;20057;-75
2022/05/04 06:18:08;;;;;;;3.38;2.42;;;;;;;;;;5005224;28;20034;-74
2022/05/04 06:20:34;;;;;;;3.92;2.17;;;;;;;;;;5006304;28;20504;-74
2022/05/04 06:23:00;;;;;;;2.60;2.00;;;;;;;;;;5002035;28;20507;-75
2022/05/04 06:25:26;;;;;;;3.97;1.90;;;;;;;;;;4996101;28;20097;-74
2022/05/04 06:27:52;;;;;;;3.22;2.38;;;;;;;;;;5001730;28;20045;-74
2022/05/04 06:35:51;;;;;;;3.50;2.40;;;;;;;;;;5008697;28;20472;-74
2022/05/04 06:38:17;;;;;;;3.88;1.80;;;;;;;;;;5000898;28;20116;-75
2022/05/04 06:40:43;;;;;;;3.58;1.60;;;;;;;;;;5004126;28;20030;-74
2022/05/04 06:43:09;;;;;;;2.97;1.75;;;;;;;;;;5008555;28;20057;-75
2022/05/04 06:45:35;;;;;;;2.70;1.90;;;;;;;;;;5008999;28;20410;-74
2022/05/04 06:48:05;;;;;;;2.80;1.90;;;;;;;;;;5004114;28;20033;-75
2022/05/04 06:50:31;;;;;;;3.15;1.98;;;;;;;;;;5000840;28;20026;-74
2022/05/04 06:52:57;;;;;;;4.05;1.80;;;;;;;;;;5002228;28;20512;-75
2022/05/04 06:55:23;;;;;;;3.40;2.10;;;;;;;;;;5000198;28;20544;-74
2022/05/04 06:57:49;;;;;;;5.00;2.00;;;;;;;;;;5001485;28;20456;-75
2022/05/04 07:00:15;;;;;;;2.50;2.00;;;;;;;;;;5005621;28;20030;-75
2022/05/04 07:02:41;;;;;;;2.70;2.10;;;;;;;;;;5002663;28;20455;-74
2022/05/04 07:05:08;;;;;;;2.58;1.88;;;;;;;;;;5000160;28;20034;-74
2022/05/04 07:07:34;;;;;;;2.53;2.20;;;;;;;;;;5000481;28;20030;-74
2022/05/04 07:10:00;;;;;;;3.60;2.28;;;;;;;;;;4992835;28;20804;-77
2022/05/04 07:12:26;;;;;;;2.33;1.90;;;;;;;;;;5006771;28;20454;-78
2022/05/04 07:14:55;;;;;;;2.85;2.00;;;;;;;;;;5000192;28;20199;-77
2022/05/04 07:17:22;;;;;;;3.90;2.10;;;;;;;;;;5002380;28;20033;-77
2022/05/04 07:19:48;;;;;;;3.33;1.80;;;;;;;;;;5000563;28;20053;-77
2022/05/04 07:22:14;;;;;;;1.73;1.63;;;;;;;;;;4997059;28;20463;-76
2022/05/04 07:24:40;;;;;;;3.63;1.90;;;;;;;;;;4997816;28;20078;-77
2022/05/04 07:27:06;;;;;;;1.92;1.70;;;;;;;;;;4998520;28;20489;-76
2022/05/04 07:29:36;;;;;;;2.28;1.70;;;;;;;;;;4999463;28;20042;-77
2022/05/04 07:32:02;;;;;;;2.45;1.70;;;;;;;;;;4999676;28;20029;-76
2022/05/04 07:34:29;;;;;;;2.17;1.60;;;;;;;;;;5000500;28;20030;-75
2022/05/04 07:36:56;;;;;;;2.25;1.60;;;;;;;;;;4999991;28;20077;-77
2022/05/04 07:42:25;;;;;;;3.58;1.88;;;;;;;;;;5003201;28;20044;-77
2022/05/04 07:44:51;;;;;;;2.30;1.70;;;;;;;;;;5002124;28;20033;-76
2022/05/04 07:47:18;;;;;;;2.70;1.50;;;;;;;;;;5004993;28;20034;-76
2022/05/04 07:49:44;;;;;;;1.38;1.27;;;;;;;;;;5007187;28;20116;-76
2022/05/04 07:52:10;;;;;;;1.48;1.27;;;;;;;;;;5004219;28;20098;-76
2022/05/04 07:54:37;;;;;;;1.77;1.65;;;;;;;;;;5006792;28;20034;-76
2022/05/04 07:57:03;;;;;;;2.45;1.85;;;;;;;;;;5009190;28;20110;-76
2022/05/04 07:59:29;;;;;;;1.33;1.20;;;;;;;;;;5009709;28;20093;-77
2022/05/04 08:04:40;;;;;;;1.55;1.45;;;;;;;;;;5013396;28;20350;-76
2022/05/04 08:07:41;;;;;;;1.70;1.60;;;;;;;;;;5011687;28;20022;-75
2022/05/04 08:10:20;;;;;;;1.77;1.48;;;;;;;;;;5014901;28;20056;-76
2022/05/04 08:12:46;;;;;;;2.08;1.88;;;;;;;;;;5003719;28;20594;-76
2022/05/04 08:15:12;;;;;;;1.80;1.70;;;;;;;;;;5005064;28;20045;-75
2022/05/04 08:17:38;;;;;;;2.50;1.65;;;;;;;;;;5005192;28;20091;-77
2022/05/04 08:20:04;;;;;;;3.00;1.70;;;;;;;;;;5009955;28;20381;-78
2022/05/04 08:22:31;;;;;;;2.88;1.60;;;;;;;;;;5005173;28;20990;-78
2022/05/04 08:24:57;;;;;;;1.85;1.60;;;;;;;;;;5005558;28;20284;-76
2022/05/04 08:27:23;;;;;;;1.90;1.52;;;;;;;;;;5004575;28;20665;-77
2022/05/04 08:29:49;;;;;;;2.03;1.50;;;;;;;;;;5005931;28;20030;-78
2022/05/04 08:32:15;;;;;;;2.55;1.50;;;;;;;;;;5006307;28;20622;-77
2022/05/04 08:34:41;;;;;;;2.75;1.52;;;;;;;;;;5002370;28;20381;-80
2022/05/04 08:37:07;;;;;;;1.70;1.60;;;;;;;;;;5012894;28;20520;-81
2022/05/04 08:39:34;;;;;;;2.25;1.70;;;;;;;;;;5025514;28;20022;-80
2022/05/04 08:42:00;;;;;;;3.55;1.80;;;;;;;;;;5025154;28;20035;-78
2022/05/04 08:44:28;;;;;;;2.30;1.75;;;;;;;;;;5012076;28;20033;-82
2022/05/04 08:46:55;;;;;;;2.75;2.10;;;;;;;;;;5001933;28;20033;-77
2022/05/04 08:49:23;;;;;;;3.10;1.50;;;;;;;;;;5004337;28;20054;-76
2022/05/04 08:51:49;;;;;;;2.28;1.30;;;;;;;;;;5004354;28;20037;-78
2022/05/04 08:54:17;;;;;;;1.45;1.40;;;;;;;;;;5008310;28;20492;-76
2022/05/04 08:56:43;;;;;;;2.95;1.60;;;;;;;;;;5005828;28;20066;-78
2022/05/04 08:59:09;;;;;;;1.50;1.40;;;;;;;;;;5001675;28;20157;-77
2022/05/04 09:01:39;;;;;;;1.23;1.20;;;;;;;;;;5007872;28;20507;-78
2022/05/04 09:04:05;;;;;;;2.65;1.55;;;;;;;;;;5012386;28;20453;-75
2022/05/04 09:06:32;;;;;;;1.77;1.50;;;;;;;;;;5012895;28;20034;-77
2022/05/04 09:09:03;;;;;;;1.20;1.20;;;;;;;;;;5013579;28;20225;-76
2022/05/04 09:11:32;;;;;;;2.58;1.58;;;;;;;;;;5001484;28;20393;-75
2022/05/04 09:13:59;;;;;;;1.85;1.33;;;;;;;;;;5000981;28;20046;-78
2022/05/04 09:16:34;;;;;;;1.75;1.55;;;;;;;;;;5003867;28;20424;-76
2022/05/04 09:19:01;;;;;;;1.65;1.35;;;;;;;;;;5001881;28;20108;-77
2022/05/04 09:21:27;;;;;;;1.60;1.50;;;;;;;;;;5001242;28;20038;-78
2022/05/04 09:23:54;;;;;;;1.98;1.60;;;;;;;;;;5005791;28;20035;-76
2022/05/04 09:26:21;;;;;;;1.85;1.65;;;;;;;;;;5003479;28;20105;-77
2022/05/04 09:29:00;;;;;;;2.40;2.00;;;;;;;;;;5005740;28;20480;-75
2022/05/04 09:31:27;;;;;;;2.70;1.85;;;;;;;;;;5001104;28;20365;-74
2022/05/04 09:33:57;;;;;;;3.90;2.10;;;;;;;;;;5002665;28;20026;-75
2022/05/04 09:45:04;;;;;;;;;;;;;;;;;;5006235;28;20070;-76
2022/05/04 09:47:30;;;;;;;2.92;1.58;;;;;;;;;;5004515;28;20563;-76
2022/05/04 09:50:04;;;;;;;1.77;1.67;;;;;;;;;;5002724;28;20037;-78
2022/05/04 09:52:40;;;;;;;1.70;1.60;;;;;;;;;;5003629;28;20084;-75
2022/05/04 09:55:27;;;;;;;3.17;2.20;;;;;;;;;;5006514;28;20045;-76
2022/05/04 09:57:54;;;;;;;2.75;1.90;;;;;;;;;;5005378;28;20030;-75
2022/05/04 10:00:21;;;;;;;1.77;1.50;;;;;;;;;;5005205;28;20073;-76
2022/05/04 10:02:48;;;;;;;1.98;1.77;;;;;;;;;;5005964;28;20025;-76
2022/05/04 10:05:16;;;;;;;1.85;1.70;;;;;;;;;;5007225;28;20096;-75
2022/05/04 10:07:42;;;;;;;2.83;1.80;;;;;;;;;;5008334;28;20046;-77
2022/05/04 10:10:09;;;;;;;2.85;1.73;;;;;;;;;;5010745;28;20085;-76
2022/05/04 10:12:38;;;;;;;3.00;1.70;;;;;;;;;;5004152;28;20040;-76
2022/05/04 10:15:07;;;;;;;2.72;2.25;;;;;;;;;;5001917;28;20073;-76
2022/05/04 10:17:34;;;;;;;3.63;1.90;;;;;;;;;;5004455;28;20036;-76
2022/05/04 10:20:11;;;;;;;3.60;1.80;;;;;;;;;;5007416;28;20030;-76
2022/05/04 10:22:43;;;;;;;4.03;2.25;;;;;;;;;;5009453;28;20119;-77
2022/05/04 10:25:10;;;;;;;2.50;1.80;;;;;;;;;;5005315;28;20055;-76
2022/05/04 10:27:43;;;;;;;2.50;1.67;;;;;;;;;;5004934;28;20029;-76
2022/05/04 10:32:59;;;;;;;3.15;1.80;;;;;;;;;;5004553;28;20409;-75
2022/05/04 10:35:45;;;;;;;2.42;1.70;;;;;;;;;;5003704;28;20023;-76
2022/05/04 10:38:12;;;;;;;2.83;1.80;;;;;;;;;;5024912;28;20026;-77
2022/05/04 10:41:02;;;;;;;2.22;1.85;;;;;;;;;;5015491;28;20037;-79
2022/05/04 10:43:45;;;;;;;2.20;1.98;;;;;;;;;;5014123;28;20033;-79
2022/05/04 10:46:13;;;;;;;2.63;2.03;;;;;;;;;;5025300;28;20038;-78
2022/05/04 10:48:43;;;;;;;4.05;2.55;;;;;;;;;;5017741;28;20030;-78
2022/05/04 10:51:24;;;;;;;3.78;2.15;;;;;;;;;;5014843;28;20022;-77
2022/05/04 10:53:51;;;;;;;3.97;2.08;;;;;;;;;;5010026;28;20030;-78
2022/05/04 10:56:18;;;;;;;2.42;2.00;;;;;;;;;;5020256;28;20026;-81
2022/05/04 10:58:50;;;;;;;2.50;2.17;;;;;;;;;;5020162;28;20026;-79
2022/05/04 11:01:31;;;;;;;4.07;2.53;;;;;;;;;;5015535;28;20036;-78
2022/05/04 11:04:07;;;;;;;4.70;2.70;;;;;;;;;;5011755;28;20796;-77
2022/05/04 11:07:06;;;;;;;6.18;3.28;;;;;;;;;;5009613;28;20504;-78
2022/05/04 11:09:39;;;;;;;6.55;3.20;;;;;;;;;;4994244;28;20054;-78
2022/05/04 11:12:06;;;;;;;4.75;3.45;;;;;;;;;;5014820;28;20025;-79
2022/05/04 11:14:34;;;;;;;8.27;3.25;;;;;;;;;;5016484;28;20056;-77
2022/05/04 11:17:00;;;;;;;5.00;3.22;;;;;;;;;;5018936;28;20098;-80
2022/05/04 11:19:27;;;;;;;5.88;3.15;;;;;;;;;;5015805;28;20076;-77
2022/05/04 11:21:54;;;;;;;4.32;3.10;;;;;;;;;;5014653;28;20085;-79
2022/05/04 11:24:20;;;;;;;6.10;3.55;;;;;;;;;;5019161;28;20034;-77
2022/05/04 11:26:48;;;;;;;4.20;3.00;;;;;;;;;;5018940;28;20073;-78
2022/05/04 11:29:16;;;;;;;5.70;3.20;;;;;;;;;;5030471;28;20034;-80
2022/05/04 11:31:56;;;;;;;6.25;4.20;;;;;;;;;;5053878;28;20011;-81
2022/05/04 11:34:23;;;;;;;7.05;3.20;;;;;;;;;;5034798;28;20121;-81
2022/05/04 11:36:50;;;;;;;6.60;2.97;;;;;;;;;;5036198;28;20159;-81
2022/05/04 11:39:18;;;;;;;6.57;3.08;;;;;;;;;;5028188;28;20026;-80
2022/05/04 11:41:47;;;;;;;6.90;3.50;;;;;;;;;;5041197;28;20052;-81
2022/05/04 11:44:14;;;;;;;8.73;4.07;;;;;;;;;;5022073;28;20033;-81
2022/05/04 11:46:44;;;;;;;9.38;3.40;;;;;;;;;;5022642;28;20049;-80
2022/05/04 11:49:12;;;;;;;7.25;3.30;;;;;;;;;;5028116;28;20026;-80
2022/05/04 11:51:38;;;;;;;6.97;3.45;;;;;;;;;;5028065;28;20030;-80
2022/05/04 11:54:05;;;;;;;5.70;3.10;;;;;;;;;;5026688;28;20034;-79
2022/05/04 11:56:31;;;;;;;6.57;3.20;;;;;;;;;;5017918;28;20089;-80
2022/05/04 11:58:57;;;;;;;5.03;2.80;;;;;;;;;;5017216;28;20044;-77
2022/05/04 12:01:24;;;;;;;4.30;2.78;;;;;;;;;;5025666;28;20029;-79
2022/05/04 12:03:50;;;;;;;6.65;3.15;;;;;;;;;;5030921;28;20060;-78
2022/05/04 12:06:17;;;;;;;5.63;2.90;;;;;;;;;;5015172;28;20093;-76
2022/05/04 12:08:43;;;;;;;7.30;3.20;;;;;;;;;;5015402;28;20022;-78
2022/05/04 12:11:09;;;;;;;6.18;3.50;;;;;;;;;;5018694;28;20026;-78
2022/05/04 12:13:39;;;;;;;6.47;3.17;;;;;;;;;;5020119;28;20030;-78
2022/05/04 12:16:06;;;;;;;5.15;2.90;;;;;;;;;;5015033;28;20040;-77
2022/05/04 12:18:34;;;;;;;4.72;2.92;;;;;;;;;;5014894;28;20033;-78
2022/05/04 12:21:09;;;;;;;5.97;3.20;;;;;;;;;;5020199;28;20056;-77
2022/05/04 12:23:36;;;;;;;4.50;2.92;;;;;;;;;;5033779;28;20026;-77
2022/05/04 12:26:03;;;;;;;7.72;3.15;;;;;;;;;;5020591;28;20033;-78
2022/05/04 12:28:30;;;;;;;5.85;3.20;;;;;;;;;;5018946;28;20034;-76
2022/05/04 12:33:41;;;;;;;6.88;3.53;;;;;;;;;;5019711;28;20080;-77
2022/05/04 12:36:09;;;;;;;7.95;3.30;;;;;;;;;;5020797;28;20029;-84
2022/05/04 12:38:36;;;;;;;7.53;3.70;;;;;;;;;;5025813;28;20025;-79
2022/05/04 12:41:03;;;;;;;4.00;3.00;;;;;;;;;;5020618;28;20056;-80
2022/05/04 12:43:30;;;;;;;5.93;3.00;;;;;;;;;;5023079;28;20037;-83
2022/05/04 12:45:57;;;;;;;5.53;2.90;;;;;;;;;;5011734;28;20044;-85
2022/05/04 12:48:27;;;;;;;5.05;3.15;;;;;;;;;;5008801;28;20037;-80
2022/05/04 12:50:55;;;;;;;8.23;3.53;;;;;;;;;;5010084;28;20080;-83
2022/05/04 12:53:21;;;;;;;5.00;2.55;;;;;;;;;;5008379;28;20029;-79
2022/05/04 12:58:32;;;;;;;6.88;2.90;;;;;;;;;;5006708;28;20053;-79
2022/05/04 13:00:58;;;;;;;9.45;3.17;;;;;;;;;;5004109;28;20034;-83
2022/05/04 13:03:25;;;;;;;7.00;2.95;;;;;;;;;;5005578;28;20034;-77
2022/05/04 13:05:51;;;;;;;3.30;2.53;;;;;;;;;;5002566;28;20034;-77
2022/05/04 13:08:17;;;;;;;8.05;3.00;;;;;;;;;;5003278;28;20103;-76
2022/05/04 13:10:44;;;;;;;5.72;2.55;;;;;;;;;;5004649;28;20038;-77
2022/05/04 13:13:10;;;;;;;4.13;2.95;;;;;;;;;;5004906;28;20057;-77
2022/05/04 13:15:37;;;;;;;3.90;2.50;;;;;;;;;;5003631;28;20054;-77
2022/05/04 13:18:04;;;;;;;3.80;3.10;;;;;;;;;;5003160;28;20396;-78
2022/05/04 13:20:30;;;;;;;5.63;2.80;;;;;;;;;;5002853;28;20561;-77
2022/05/04 13:22:57;;;;;;;4.93;2.60;;;;;;;;;;5004921;28;20030;-79
2022/05/04 13:25:23;;;;;;;5.70;2.72;;;;;;;;;;5002291;28;20038;-77
2022/05/04 13:27:49;;;;;;;4.05;2.50;;;;;;;;;;5003087;28;20034;-78
2022/05/04 13:30:15;;;;;;;5.80;2.85;;;;;;;;;;5005871;28;20060;-78
2022/05/04 13:32:41;;;;;;;6.43;3.15;;;;;;;;;;5002812;28;20037;-77
2022/05/04 13:35:08;;;;;;;4.82;2.45;;;;;;;;;;5001377;28;20499;-77
2022/05/04 13:37:34;;;;;;;4.03;3.10;;;;;;;;;;5002073;28;20087;-77
2022/05/04 13:40:00;;;;;;;3.60;2.50;;;;;;;;;;5004159;28;20389;-76
2022/05/04 13:42:26;;;;;;;5.65;2.58;;;;;;;;;;5002163;28;20033;-77
2022/05/04 13:44:52;;;;;;;5.20;2.65;;;;;;;;;;5005072;28;20495;-77
2022/05/04 13:47:18;;;;;;;6.07;3.08;;;;;;;;;;5003798;28;20034;-77
2022/05/04 13:49:44;;;;;;;4.15;2.53;;;;;;;;;;5003553;28;20029;-79
2022/05/04 13:54:55;;;;;;;;;;;;;;;;;;5007052;28;20049;-78
2022/05/04 13:57:21;;;;;;;4.47;2.30;;;;;;;;;;5027103;28;19905;-79
2022/05/04 13:59:47;;;;;;;6.90;2.80;;;;;;;;;;5008796;28;20064;-79
2022/05/04 14:02:14;;;;;;;3.55;2.42;;;;;;;;;;5000936;28;20033;-78
2022/05/04 14:04:40;;;;;;;4.40;2.65;;;;;;;;;;5008836;28;20377;-81
2022/05/04 14:07:07;;;;;;;6.60;2.75;;;;;;;;;;5005075;28;20045;-77
2022/05/04 14:09:33;;;;;;;3.75;2.20;;;;;;;;;;5004455;28;20018;-77
2022/05/04 14:12:03;;;;;;;5.40;3.83;;;;;;;;;;5001437;28;20026;-78
2022/05/04 14:17:14;;;;;;;6.05;2.42;;;;;;;;;;5003090;28;20057;-80
2022/05/04 14:19:40;;;;;;;7.25;2.67;;;;;;;;;;5003922;28;20410;-78
2022/05/04 14:22:06;;;;;;;4.07;2.13;;;;;;;;;;5000814;28;20032;-78
2022/05/04 14:24:32;;;;;;;4.47;2.65;;;;;;;;;;5004574;28;20613;-78
2022/05/04 14:26:58;;;;;;;4.53;2.60;;;;;;;;;;5003580;28;20041;-79
2022/05/04 14:29:24;;;;;;;3.92;2.42;;;;;;;;;;5001651;28;20627;-77
2022/05/04 14:31:51;;;;;;;5.95;2.67;;;;;;;;;;5001918;28;20415;-78
2022/05/04 14:34:18;;;;;;;4.53;2.40;;;;;;;;;;5003479;28;20026;-76
2022/05/04 14:36:44;;;;;;;4.75;2.40;;;;;;;;;;4999538;28;20433;-77
2022/05/04 14:39:10;;;;;;;4.97;2.40;;;;;;;;;;5002775;28;20060;-80
2022/05/04 14:41:36;;;;;;;3.47;2.78;;;;;;;;;;4999315;28;20042;-77
2022/05/04 14:44:02;;;;;;;3.47;2.17;;;;;;;;;;5001613;28;20037;-77
2022/05/04 14:46:29;;;;;;;4.38;2.15;;;;;;;;;;4999404;28;20030;-79
2022/05/04 14:48:55;;;;;;;2.67;2.00;;;;;;;;;;5002069;28;20173;-79
2022/05/04 14:51:21;;;;;;;5.30;2.33;;;;;;;;;;5001829;28;20034;-79
2022/05/04 14:53:51;;;;;;;3.17;2.10;;;;;;;;;;5000815;28;20164;-79
2022/05/04 14:56:17;;;;;;;2.85;2.33;;;;;;;;;;5000056;28;20062;-80
2022/05/04 14:58:43;;;;;;;3.72;2.25;;;;;;;;;;5000923;28;20412;-79
2022/05/04 15:01:10;;;;;;;3.05;2.00;;;;;;;;;;4999785;28;20484;-81
2022/05/04 15:06:21;;;;;;;6.03;2.30;;;;;;;;;;5001341;28;20514;-80
2022/05/04 15:08:47;;;;;;;3.33;1.80;;;;;;;;;;5009485;28;20064;-83
2022/05/04 15:11:13;;;;;;;3.38;2.03;;;;;;;;;;5002263;28;20030;-79
2022/05/04 15:13:40;;;;;;;3.55;2.40;;;;;;;;;;4998470;28;20749;-79
2022/05/04 15:16:06;;;;;;;3.60;2.22;;;;;;;;;;5001951;28;20037;-79
2022/05/04 15:18:34;;;;;;;3.55;2.20;;;;;;;;;;4998167;28;20053;-80
2022/05/04 15:21:00;;;;;;;5.15;2.33;;;;;;;;;;5015404;28;20053;-80
2022/05/04 15:23:27;;;;;;;4.05;2.20;;;;;;;;;;5000917;28;20034;-78
2022/05/04 15:25:53;;;;;;;2.95;2.03;;;;;;;;;;5001031;28;20108;-80
2022/05/04 15:28:19;;;;;;;2.78;1.90;;;;;;;;;;5017312;28;20088;-79
2022/05/04 15:30:45;;;;;;;3.67;1.95;;;;;;;;;;5000016;28;20489;-81
2022/05/04 15:33:11;;;;;;;5.90;2.72;;;;;;;;;;5002138;28;20065;-78
2022/05/04 15:35:37;;;;;;;5.05;2.20;;;;;;;;;;5000312;28;20034;-77
2022/05/04 15:38:03;;;;;;;5.07;2.40;;;;;;;;;;5001203;28;20069;-78